Capt. T Le — WDC9568 — position and weather

sailwx.info

Track history (hours):
 
Tides and Currents Weather Stations Pressure Air Temp Water Temp Dewpoint Dewpoint Depression Visibility Wind Speed Wind Dir Waves Ship Positions

Capt. T Le

Owner: SO CAL SHIP SERVICES, INC, TERMINAL ISLAND, CA. More information available from US FCC via Universal Licensing System and Coast Guard Vessel Documentation Center.

Last reported at 2017-Sep-25 14:29 UTC. Time now 2017-Sep-25 14:58 UTC.
Position N 34°10' W 119°24'.

Length 38 m; draft 2 m.

Type: Ship (hazmat cat B). MMSI: 367104030.

Date/timePositionNaut miles runAvg speedWind from/ knotsBaromVisibWave heightAir tempDewpointWater temp
2017-Sep-25 14:29N 34°10' W 119°24'715.1
2017-Sep-25 14:00N 34°07' W 119°16'3 6.6
2017-Sep-25 13:29N 34°09' W 119°12'0 0.0
2017-Sep-25 12:58N 34°09' W 119°12'2 4.9
2017-Sep-25 12:27N 34°08' W 119°15'2 5.0
2017-Sep-25 11:57N 34°09' W 119°12'0 0.0
2017-Sep-25 11:28N 34°09' W 119°12'0 0.0
2017-Sep-25 10:46N 34°09' W 119°12'0 0.0
2017-Sep-25 10:26N 34°09' W 119°12'0 0.0
2017-Sep-25 10:00N 34°09' W 119°12'0 0.0
2017-Sep-25 09:20N 34°09' W 119°12'0 0.0
2017-Sep-25 08:58N 34°09' W 119°12'0 0.0
2017-Sep-25 08:13N 34°09' W 119°12'0 0.0
2017-Sep-25 07:55N 34°09' W 119°12'0 0.0
2017-Sep-25 07:25N 34°09' W 119°12'0 0.0
2017-Sep-25 07:00N 34°09' W 119°12'0 0.0
2017-Sep-25 06:25N 34°09' W 119°12'0 0.0
2017-Sep-25 06:00N 34°09' W 119°12'0 0.0
2017-Sep-25 05:24N 34°09' W 119°12'0 0.0
2017-Sep-25 04:59N 34°09' W 119°12'0 0.0
2017-Sep-25 04:28N 34°09' W 119°12'0 0.0
2017-Sep-25 04:00N 34°09' W 119°12'0 0.0
2017-Sep-25 03:27N 34°09' W 119°12'0 0.0
2017-Sep-25 03:00N 34°09' W 119°12'3 6.2
2017-Sep-25 02:30N 34°10' W 119°16'3 5.6
2017-Sep-25 02:00N 34°09' W 119°13'1 0.9
2017-Sep-25 01:27N 34°09' W 119°12'0 0.0
2017-Sep-25 00:59N 34°09' W 119°12'1 2.8
2017-Sep-25 00:30N 34°08' W 119°13'1 2.1
2017-Sep-25 00:00N 34°09' W 119°13'0 0.6
2017-Sep-24 23:27N 34°09' W 119°12'2 4.3
2017-Sep-24 22:59N 34°08' W 119°14'816.9
2017-Sep-24 22:29N 34°11' W 119°24'612.2
2017-Sep-24 21:59N 34°08' W 119°18'1 2.0
2017-Sep-24 21:30N 34°07' W 119°17'0 0.0
2017-Sep-24 21:00N 34°07' W 119°17'0 0.0
2017-Sep-24 20:30N 34°07' W 119°17'1 2.3
2017-Sep-24 20:00N 34°08' W 119°15'3 5.3
2017-Sep-24 19:27N 34°09' W 119°12'0 0.0
2017-Sep-24 18:59N 34°09' W 119°12'0 0.0
2017-Sep-24 18:15N 34°09' W 119°12'0 0.0
2017-Sep-24 17:59N 34°09' W 119°12'4 8.2
2017-Sep-24 17:29N 34°07' W 119°17'4 7.7
2017-Sep-24 16:56N 34°09' W 119°12'0 0.0
2017-Sep-24 16:28N 34°09' W 119°12'4 8.0
2017-Sep-24 16:00N 34°07' W 119°16'4 7.5
2017-Sep-24 15:30N 34°11' W 119°16'812.1
2017-Sep-24 14:53N 34°11' W 119°25'411.7
2017-Sep-24 14:30N 34°09' W 119°21'611.8
2017-Sep-24 13:58N 34°09' W 119°13'1 1.2
2017-Sep-24 13:26N 34°09' W 119°12'0 0.0
2017-Sep-24 12:58N 34°09' W 119°12'0 0.5
2017-Sep-24 12:30N 34°09' W 119°12'1 1.9
2017-Sep-24 12:00N 34°08' W 119°13'1 2.0
2017-Sep-24 11:25N 34°09' W 119°12'0 0.0
2017-Sep-24 10:52N 34°09' W 119°12'0 0.0
2017-Sep-24 10:30N 34°09' W 119°12'0 0.0
2017-Sep-24 09:49N 34°09' W 119°12'0 0.0
2017-Sep-24 09:30N 34°09' W 119°12'0 0.0
2017-Sep-24 08:58N 34°09' W 119°12'0 0.0
2017-Sep-24 08:30N 34°09' W 119°12'0 0.0
2017-Sep-24 07:55N 34°09' W 119°12'0 0.0
2017-Sep-24 07:29N 34°09' W 119°12'0 0.0
2017-Sep-24 07:00N 34°09' W 119°12'0 0.0
2017-Sep-24 06:29N 34°09' W 119°12'0 0.0
2017-Sep-24 05:59N 34°09' W 119°12'0 0.0
2017-Sep-24 05:28N 34°09' W 119°12'4 8.7
2017-Sep-24 05:00N 34°07' W 119°17'713.4
2017-Sep-24 04:27N 34°11' W 119°24'716.1
2017-Sep-24 04:00N 34°17' W 119°29'713.1
2017-Sep-24 03:30N 34°23' W 119°30'3 5.5
2017-Sep-24 03:00N 34°20' W 119°32'815.0
2017-Sep-24 02:30N 34°14' W 119°27'5 8.9
2017-Sep-24 01:59N 34°10' W 119°24'914.0
2017-Sep-24 01:23N 34°08' W 119°14'2 3.0
2017-Sep-24 00:52N 34°09' W 119°12'4 9.8
2017-Sep-24 00:29N 34°07' W 119°16'4 7.5
2017-Sep-23 23:59N 34°09' W 119°12'0 0.0
2017-Sep-23 23:27N 34°09' W 119°12'2 4.7
2017-Sep-23 23:00N 34°08' W 119°15'2 4.2
2017-Sep-23 22:31N 34°07' W 119°17'4 8.2
2017-Sep-23 22:00N 34°09' W 119°12'2 4.0
2017-Sep-23 21:30N 34°09' W 119°15'816.2
2017-Sep-23 20:59N 34°11' W 119°24'1 1.3
2017-Sep-23 20:28N 34°11' W 119°25'1 1.2
2017-Sep-23 19:59N 34°11' W 119°26'11 0.3
2017-Sep-22 01:57N 34°09' W 119°12'3 6.1
2017-Sep-22 01:30N 34°08' W 119°15'1 1.5
2017-Sep-22 00:59N 34°08' W 119°14'2 3.3
2017-Sep-22 00:25N 34°09' W 119°12'0 0.0
2017-Sep-22 00:00N 34°09' W 119°12'0 0.0
2017-Sep-21 23:28N 34°09' W 119°12'2 3.9
2017-Sep-21 23:01N 34°09' W 119°14'917.9
2017-Sep-21 22:29N 34°11' W 119°25'1 1.3
2017-Sep-21 21:58N 34°11' W 119°26'1 1.4
2017-Sep-21 21:30N 34°11' W 119°25'0 0.0
2017-Sep-21 21:00N 34°11' W 119°25'612.0
2017-Sep-21 20:28N 34°16' W 119°30'612.2
2017-Sep-21 20:00N 34°22' W 119°31'1 2.9
2017-Sep-21 19:29N 34°23' W 119°30'0 0.0
2017-Sep-21 18:53N 34°23' W 119°30'0 1.2
2017-Sep-21 18:29N 34°23' W 119°31'612.5
2017-Sep-21 17:59N 34°17' W 119°28'714.7
2017-Sep-21 17:30N 34°12' W 119°22'612.5
2017-Sep-21 17:00N 34°07' W 119°17'0 0.1
2017-Sep-21 16:30N 34°07' W 119°17'4 8.0
2017-Sep-21 16:01N 34°09' W 119°12'611.5
2017-Sep-21 15:30N 34°10' W 119°20'5 9.3
2017-Sep-21 14:59N 34°11' W 119°25'816.6
2017-Sep-21 14:30N 34°07' W 119°17'4 7.1
2017-Sep-21 13:55N 34°09' W 119°12'0 0.0
2017-Sep-21 13:30N 34°09' W 119°12'0 0.0
2017-Sep-21 12:54N 34°09' W 119°12'2 3.8
2017-Sep-21 12:30N 34°08' W 119°14'1 2.3
2017-Sep-21 12:00N 34°09' W 119°13'0 0.7
2017-Sep-21 11:28N 34°09' W 119°12'0 0.0
2017-Sep-21 10:57N 34°09' W 119°12'0 0.0
2017-Sep-21 10:29N 34°09' W 119°12'0 0.0
2017-Sep-21 09:53N 34°09' W 119°12'0 0.0
2017-Sep-21 09:29N 34°09' W 119°12'0 0.0
2017-Sep-21 09:00N 34°09' W 119°12'0 0.0
2017-Sep-21 08:30N 34°09' W 119°12'0 0.0
2017-Sep-21 08:00N 34°09' W 119°12'0 0.0
2017-Sep-21 07:29N 34°09' W 119°12'0 0.0
2017-Sep-21 07:00N 34°09' W 119°12'0 0.0
2017-Sep-21 06:28N 34°09' W 119°12'0 0.0
2017-Sep-21 05:51N 34°09' W 119°12'0 0.0
2017-Sep-21 05:27N 34°09' W 119°12'0 0.0
2017-Sep-21 04:59N 34°09' W 119°12'0 0.0
2017-Sep-21 04:30N 34°09' W 119°12'0 0.0
2017-Sep-21 04:00N 34°09' W 119°12'0 0.0
2017-Sep-21 03:27N 34°09' W 119°12'0 0.0
2017-Sep-21 02:50N 34°09' W 119°12'0 0.6
2017-Sep-21 02:30N 34°09' W 119°12'916.0
2017-Sep-21 01:58N 34°10' W 119°23'2 5.1
2017-Sep-21 01:30N 34°10' W 119°20'611.2
2017-Sep-21 00:56N 34°09' W 119°12'2 4.1
2017-Sep-21 00:30N 34°08' W 119°14'1 3.0
2017-Sep-21 00:00N 34°09' W 119°12'0 0.6
2017-Sep-20 23:30N 34°09' W 119°12'4 7.4
2017-Sep-20 23:01N 34°07' W 119°16'815.9
2017-Sep-20 22:30N 34°11' W 119°25'2 5.0
2017-Sep-20 22:00N 34°10' W 119°22'814.4
2017-Sep-20 21:26N 34°09' W 119°12'4 9.5
2017-Sep-20 21:00N 34°07' W 119°17'0 0.1
2017-Sep-20 20:30N 34°07' W 119°17'610.9
2017-Sep-20 19:59N 34°10' W 119°23'610.8
2017-Sep-20 19:26N 34°14' W 119°27'715.6
2017-Sep-20 19:00N 34°20' W 119°31'3 5.5
2017-Sep-20 18:30N 34°23' W 119°30'0 0.3
2017-Sep-20 17:57N 34°23' W 119°31'612.9
2017-Sep-20 17:29N 34°17' W 119°30'816.4
2017-Sep-20 17:00N 34°10' W 119°24'714.4
2017-Sep-20 16:30N 34°08' W 119°16'3 6.5
2017-Sep-20 16:00N 34°09' W 119°12'1 2.0
2017-Sep-20 15:31N 34°08' W 119°13'917.0
2017-Sep-20 14:59N 34°11' W 119°24'1010.0
2017-Sep-20 14:00N 34°09' W 119°12'0 0.0
2017-Sep-20 13:30N 34°09' W 119°12'1 2.0
2017-Sep-20 12:59N 34°08' W 119°13'1 2.0
2017-Sep-20 12:30N 34°08' W 119°14'2 3.4
2017-Sep-20 12:00N 34°09' W 119°12'0 0.5
2017-Sep-20 11:28N 34°09' W 119°12'0 0.0
2017-Sep-20 10:58N 34°09' W 119°12'0 0.0
2017-Sep-20 10:29N 34°09' W 119°12'0 0.0
2017-Sep-20 10:00N 34°09' W 119°12'1 1.8
2017-Sep-20 09:30N 34°08' W 119°13'713.5
2017-Sep-20 08:59N 34°11' W 119°21'817.4
2017-Sep-20 08:30N 34°18' W 119°27'510.4
2017-Sep-20 07:59N 34°23' W 119°30'0 0.5
2017-Sep-20 07:28N 34°23' W 119°30'0 0.1
2017-Sep-20 07:00N 34°23' W 119°30'0 0.0
2017-Sep-20 06:24N 34°23' W 119°30'0 0.1
2017-Sep-20 06:00N 34°22' W 119°30'916.1
2017-Sep-20 05:28N 34°15' W 119°24'817.4
2017-Sep-20 04:59N 34°09' W 119°18'5 9.3
2017-Sep-20 04:26N 34°09' W 119°12'0 0.0
2017-Sep-20 03:59N 34°09' W 119°12'0 0.0
2017-Sep-20 03:25N 34°09' W 119°12'0 0.0
2017-Sep-20 03:00N 34°09' W 119°12'3 6.0
2017-Sep-20 02:30N 34°09' W 119°16'816.2
2017-Sep-20 02:00N 34°11' W 119°25'815.3
2017-Sep-20 01:29N 34°07' W 119°17'4 8.3
2017-Sep-20 01:00N 34°09' W 119°12'0 0.4
2017-Sep-20 00:30N 34°09' W 119°12'2 4.1
2017-Sep-20 00:01N 34°08' W 119°14'2 4.0
2017-Sep-19 23:29N 34°09' W 119°12'4 8.6
2017-Sep-19 23:00N 34°07' W 119°17'815.9
2017-Sep-19 22:30N 34°11' W 119°25'0 0.0
2017-Sep-19 22:00N 34°11' W 119°25'0 0.3
2017-Sep-19 21:30N 34°11' W 119°25'5 9.6
2017-Sep-19 20:58N 34°08' W 119°20'3 6.0
2017-Sep-19 20:30N 34°07' W 119°17'4 8.2
2017-Sep-19 20:00N 34°09' W 119°12'2 5.0
2017-Sep-19 19:30N 34°08' W 119°15'713.6
2017-Sep-19 19:00N 34°10' W 119°23'2 4.6
2017-Sep-19 18:29N 34°11' W 119°25'2 3.6
2017-Sep-19 17:58N 34°12' W 119°27'816.8
2017-Sep-19 17:29N 34°20' W 119°31'3 7.2
2017-Sep-19 17:00N 34°23' W 119°30'1 2.6
2017-Sep-19 16:28N 34°22' W 119°31'815.1
2017-Sep-19 15:56N 34°14' W 119°28'4 9.1
2017-Sep-19 15:30N 34°11' W 119°25'0 0.0
2017-Sep-19 15:00N 34°11' W 119°25'4 6.4
2017-Sep-19 14:27N 34°09' W 119°21'511.8
2017-Sep-19 14:00N 34°08' W 119°16'3 6.2
2017-Sep-19 13:30N 34°09' W 119°12'0 0.0
2017-Sep-19 13:00N 34°09' W 119°12'4 7.4
2017-Sep-19 12:30N 34°07' W 119°16'4 7.0
2017-Sep-19 12:00N 34°09' W 119°12'0 0.0
2017-Sep-19 11:31N 34°09' W 119°12'0 0.0
2017-Sep-19 11:00N 34°09' W 119°12'0 0.0
2017-Sep-19 10:30N 34°09' W 119°12'0 0.0
2017-Sep-19 10:00N 34°09' W 119°12'0 0.0
2017-Sep-19 09:31N 34°09' W 119°12'0 0.0
2017-Sep-19 09:01N 34°09' W 119°12'0 0.0
2017-Sep-19 08:30N 34°09' W 119°12'0 0.0
2017-Sep-19 08:01N 34°09' W 119°12'0 0.0
2017-Sep-19 07:31N 34°09' W 119°12'0 0.2
2017-Sep-19 07:01N 34°09' W 119°12'1 2.9
2017-Sep-19 06:31N 34°08' W 119°14'4 8.0
2017-Sep-19 06:00N 34°08' W 119°19'612.1
2017-Sep-19 05:30N 34°11' W 119°25'0 0.0
2017-Sep-19 05:00N 34°11' W 119°25'2 3.2
2017-Sep-19 04:30N 34°10' W 119°23'611.5
2017-Sep-19 03:57N 34°07' W 119°17'4 9.5
2017-Sep-19 03:31N 34°09' W 119°12'815.7
2017-Sep-19 03:00N 34°10' W 119°22'2 4.4
2017-Sep-19 02:29N 34°09' W 119°20'3 6.6
2017-Sep-19 02:00N 34°07' W 119°16'4 7.5
2017-Sep-19 01:29N 34°09' W 119°12'0 0.0
2017-Sep-19 00:58N 34°09' W 119°12'1 2.2
2017-Sep-19 00:30N 34°08' W 119°13'0 0.8
2017-Sep-19 00:00N 34°08' W 119°14'1 2.6
2017-Sep-18 23:29N 34°09' W 119°12'4 8.7
2017-Sep-18 23:00N 34°07' W 119°17'816.2
2017-Sep-18 22:30N 34°11' W 119°25'813.7
2017-Sep-18 21:57N 34°07' W 119°17'0 1.0
2017-Sep-18 21:30N 34°07' W 119°17'0 0.0
2017-Sep-18 21:00N 34°07' W 119°17'0 0.0
2017-Sep-18 20:30N 34°07' W 119°17'0 0.0
2017-Sep-18 20:00N 34°07' W 119°17'0 0.0
2017-Sep-18 19:30N 34°07' W 119°17'1 1.4
2017-Sep-18 19:00N 34°08' W 119°16'0 0.5
2017-Sep-18 18:26N 34°08' W 119°17'0 0.4
2017-Sep-18 18:00N 34°08' W 119°17'0 0.3
2017-Sep-18 17:30N 34°08' W 119°17'4 8.3
2017-Sep-18 17:00N 34°09' W 119°12'0 0.0
2017-Sep-18 16:28N 34°09' W 119°12'0 0.0
2017-Sep-18 16:00N 34°09' W 119°12'4 7.5
2017-Sep-18 15:31N 34°07' W 119°16'611.8
2017-Sep-18 15:00N 34°10' W 119°23'1 1.4
2017-Sep-18 14:30N 34°09' W 119°22'714.4
2017-Sep-18 14:00N 34°08' W 119°13'1 1.9
2017-Sep-18 13:30N 34°09' W 119°12'0 0.0
2017-Sep-18 13:00N 34°09' W 119°12'1 1.8
2017-Sep-18 12:30N 34°08' W 119°13'0 0.9
2017-Sep-18 12:00N 34°08' W 119°14'1 2.6
2017-Sep-18 11:28N 34°09' W 119°12'1 1.1
2017-Sep-18 11:00N 34°09' W 119°13'916.7
2017-Sep-18 10:28N 34°11' W 119°23'4 7.9
2017-Sep-18 10:00N 34°09' W 119°19'611.6
2017-Sep-18 09:30N 34°09' W 119°12'0 0.0
2017-Sep-18 09:00N 34°09' W 119°12'0 0.0
2017-Sep-18 08:29N 34°09' W 119°12'0 0.0
2017-Sep-18 07:59N 34°09' W 119°12'0 0.0
2017-Sep-18 07:27N 34°09' W 119°12'0 0.0
2017-Sep-18 06:55N 34°09' W 119°12'0 0.0
2017-Sep-18 06:29N 34°09' W 119°12'0 0.0
2017-Sep-18 05:54N 34°09' W 119°12'0 1.0
2017-Sep-18 05:30N 34°09' W 119°13'916.6
2017-Sep-18 04:57N 34°11' W 119°23'715.4
2017-Sep-18 04:30N 34°16' W 119°28'714.1
2017-Sep-18 04:00N 34°23' W 119°30'712.6
2017-Sep-18 03:29N 34°18' W 119°26'816.8
2017-Sep-18 02:59N 34°12' W 119°18'612.6
2017-Sep-18 02:30N 34°09' W 119°12'815.5
2017-Sep-18 02:00N 34°10' W 119°21'1 2.1
2017-Sep-18 01:30N 34°09' W 119°21'713.7
2017-Sep-18 01:00N 34°09' W 119°13'0 0.8
2017-Sep-18 00:30N 34°09' W 119°12'0 0.0
2017-Sep-18 00:01N 34°09' W 119°12'714.7
2017-Sep-17 23:30N 34°10' W 119°21'4 7.0
2017-Sep-17 23:00N 34°11' W 119°25'0 0.1
2017-Sep-17 22:30N 34°11' W 119°25'814.8
2017-Sep-17 21:58N 34°07' W 119°17'0 0.0
2017-Sep-17 21:30N 34°07' W 119°17'0 0.0
2017-Sep-17 21:00N 34°07' W 119°17'0 0.0
2017-Sep-17 20:30N 34°07' W 119°17'0 0.0
2017-Sep-17 20:00N 34°07' W 119°17'0 0.0
2017-Sep-17 19:30N 34°07' W 119°17'0 0.0
2017-Sep-17 19:00N 34°07' W 119°17'0 0.0
2017-Sep-17 18:29N 34°07' W 119°17'1 2.9
2017-Sep-17 18:00N 34°08' W 119°15'3 5.2
2017-Sep-17 17:30N 34°09' W 119°12'0 0.0
2017-Sep-17 17:00N 34°09' W 119°12'0 0.2
2017-Sep-17 16:30N 34°09' W 119°12'0 0.0
2017-Sep-17 16:00N 34°09' W 119°12'2 4.2
2017-Sep-17 15:30N 34°08' W 119°14'4 8.7
2017-Sep-17 15:00N 34°12' W 119°17'613.2
2017-Sep-17 14:31N 34°11' W 119°25'815.7
2017-Sep-17 14:01N 34°09' W 119°16'1 0.1
2017-Sep-17 01:42N 34°09' W 119°17'316.7
2017-Sep-17 01:31N 34°09' W 119°13'1 2.1
2017-Sep-17 01:00N 34°09' W 119°12'0 0.0
2017-Sep-17 00:27N 34°09' W 119°12'0 0.0
2017-Sep-17 00:00N 34°09' W 119°12'0 0.0
2017-Sep-16 23:28N 34°09' W 119°12'4 9.0
2017-Sep-16 23:00N 34°07' W 119°17'815.7
2017-Sep-16 22:30N 34°11' W 119°25'0 0.0
2017-Sep-16 22:00N 34°11' W 119°25'0 0.0
2017-Sep-16 21:30N 34°11' W 119°25'0 0.0
2017-Sep-16 21:00N 34°11' W 119°25'4 6.5
2017-Sep-16 20:26N 34°09' W 119°21'2 5.3
2017-Sep-16 20:00N 34°08' W 119°19'611.8
2017-Sep-16 19:30N 34°11' W 119°25'0 0.1
2017-Sep-16 19:00N 34°11' W 119°25'713.6
2017-Sep-16 18:30N 34°17' W 119°29'6 9.2
2017-Sep-16 17:49N 34°23' W 119°30'3 9.5
2017-Sep-16 17:29N 34°20' W 119°32'816.0
2017-Sep-16 17:00N 34°14' W 119°25'814.4
2017-Sep-16 16:27N 34°09' W 119°18'2 4.9
2017-Sep-16 16:00N 34°07' W 119°17'4 8.2
2017-Sep-16 15:30N 34°09' W 119°12'510.1
2017-Sep-16 15:00N 34°10' W 119°18'510.0
2017-Sep-16 14:30N 34°10' W 119°24'815.1
2017-Sep-16 13:59N 34°08' W 119°15'3 5.2
2017-Sep-16 13:26N 34°09' W 119°12'0 0.0
2017-Sep-16 12:57N 34°09' W 119°12'0 0.0
2017-Sep-16 12:28N 34°09' W 119°12'0 0.0
2017-Sep-16 12:00N 34°09' W 119°12'0 0.0
2017-Sep-16 11:29N 34°09' W 119°12'0 0.0
2017-Sep-16 11:00N 34°09' W 119°12'0 0.0
2017-Sep-16 10:30N 34°09' W 119°12'0 0.0
2017-Sep-16 10:00N 34°09' W 119°12'0 0.0
2017-Sep-16 09:26N 34°09' W 119°12'0 0.0
2017-Sep-16 08:42N 34°09' W 119°12'0 0.0
2017-Sep-16 08:29N 34°09' W 119°12'0 0.0
2017-Sep-16 07:59N 34°09' W 119°12'0 0.0
2017-Sep-16 07:30N 34°09' W 119°12'0 0.0
2017-Sep-16 06:57N 34°09' W 119°12'0 0.0
2017-Sep-16 06:30N 34°09' W 119°12'0 0.0
2017-Sep-16 05:59N 34°09' W 119°12'0 0.0
2017-Sep-16 05:30N 34°09' W 119°12'0 0.0
2017-Sep-16 04:58N 34°09' W 119°12'0 0.0
2017-Sep-16 04:28N 34°09' W 119°12'0 0.0
2017-Sep-16 03:51N 34°09' W 119°12'0 0.0
2017-Sep-16 03:25N 34°09' W 119°12'3 7.3
2017-Sep-16 02:59N 34°09' W 119°16'816.5
2017-Sep-16 02:30N 34°11' W 119°25'712.2
2017-Sep-16 01:56N 34°09' W 119°17'4 8.9
2017-Sep-16 01:29N 34°09' W 119°12'0 0.0
2017-Sep-16 01:01N 34°09' W 119°12'0 0.0
2017-Sep-16 00:30N 34°09' W 119°12'0 0.0
2017-Sep-16 00:01N 34°09' W 119°12'0 0.0
2017-Sep-15 23:27N 34°09' W 119°12'4 9.1
2017-Sep-15 23:00N 34°07' W 119°17'816.1
2017-Sep-15 22:30N 34°11' W 119°25'713.4
2017-Sep-15 21:57N 34°07' W 119°17'0 1.0
2017-Sep-15 21:30N 34°07' W 119°17'4 7.1
2017-Sep-15 21:01N 34°09' W 119°13'4 8.0
2017-Sep-15 20:29N 34°08' W 119°18'714.5
2017-Sep-15 20:00N 34°11' W 119°25'0 0.3
2017-Sep-15 19:29N 34°11' W 119°25'4 8.3
2017-Sep-15 18:58N 34°15' W 119°28'715.5
2017-Sep-15 18:30N 34°21' W 119°32'2 4.5
2017-Sep-15 18:00N 34°23' W 119°31'4 7.9
2017-Sep-15 17:30N 34°19' W 119°31'714.9
2017-Sep-15 17:00N 34°13' W 119°27'2 4.5
2017-Sep-15 16:30N 34°11' W 119°25'5 9.7
2017-Sep-15 16:00N 34°10' W 119°19'611.9
2017-Sep-15 15:30N 34°09' W 119°12'815.2
2017-Sep-15 14:57N 34°10' W 119°22'1 2.1
2017-Sep-15 14:30N 34°10' W 119°23'  
Track history (hours):
 
Tides and Currents Weather Stations Pressure Air Temp Water Temp Dewpoint Dewpoint Depression Visibility Wind Speed Wind Dir Waves Ship Positions

Capt. T Le

Owner: SO CAL SHIP SERVICES, INC, TERMINAL ISLAND, CA. More information available from US FCC via Universal Licensing System and Coast Guard Vessel Documentation Center.

Last reported at 2017-Sep-25 14:29 UTC. Time now 2017-Sep-25 14:58 UTC.
Position N 34°10' W 119°24'.

Length 38 m; draft 2 m.

Type: Ship (hazmat cat B). MMSI: 367104030.

Date/timePositionNaut miles runAvg speedWind from/ knotsBaromVisibWave heightAir tempDewpointWater temp
2017-Sep-25 14:29N 34°10' W 119°24'715.1
2017-Sep-25 14:00N 34°07' W 119°16'3 6.6
2017-Sep-25 13:29N 34°09' W 119°12'0 0.0
2017-Sep-25 12:58N 34°09' W 119°12'2 4.9
2017-Sep-25 12:27N 34°08' W 119°15'2 5.0
2017-Sep-25 11:57N 34°09' W 119°12'0 0.0
2017-Sep-25 11:28N 34°09' W 119°12'0 0.0
2017-Sep-25 10:46N 34°09' W 119°12'0 0.0
2017-Sep-25 10:26N 34°09' W 119°12'0 0.0
2017-Sep-25 10:00N 34°09' W 119°12'0 0.0
2017-Sep-25 09:20N 34°09' W 119°12'0 0.0
2017-Sep-25 08:58N 34°09' W 119°12'0 0.0
2017-Sep-25 08:13N 34°09' W 119°12'0 0.0
2017-Sep-25 07:55N 34°09' W 119°12'0 0.0
2017-Sep-25 07:25N 34°09' W 119°12'0 0.0
2017-Sep-25 07:00N 34°09' W 119°12'0 0.0
2017-Sep-25 06:25N 34°09' W 119°12'0 0.0
2017-Sep-25 06:00N 34°09' W 119°12'0 0.0
2017-Sep-25 05:24N 34°09' W 119°12'0 0.0
2017-Sep-25 04:59N 34°09' W 119°12'0 0.0
2017-Sep-25 04:28N 34°09' W 119°12'0 0.0
2017-Sep-25 04:00N 34°09' W 119°12'0 0.0
2017-Sep-25 03:27N 34°09' W 119°12'0 0.0
2017-Sep-25 03:00N 34°09' W 119°12'3 6.2
2017-Sep-25 02:30N 34°10' W 119°16'3 5.6
2017-Sep-25 02:00N 34°09' W 119°13'1 0.9
2017-Sep-25 01:27N 34°09' W 119°12'0 0.0
2017-Sep-25 00:59N 34°09' W 119°12'1 2.8
2017-Sep-25 00:30N 34°08' W 119°13'1 2.1
2017-Sep-25 00:00N 34°09' W 119°13'0 0.6
2017-Sep-24 23:27N 34°09' W 119°12'2 4.3
2017-Sep-24 22:59N 34°08' W 119°14'816.9
2017-Sep-24 22:29N 34°11' W 119°24'612.2
2017-Sep-24 21:59N 34°08' W 119°18'1 2.0
2017-Sep-24 21:30N 34°07' W 119°17'0 0.0
2017-Sep-24 21:00N 34°07' W 119°17'0 0.0
2017-Sep-24 20:30N 34°07' W 119°17'1 2.3
2017-Sep-24 20:00N 34°08' W 119°15'3 5.3
2017-Sep-24 19:27N 34°09' W 119°12'0 0.0
2017-Sep-24 18:59N 34°09' W 119°12'0 0.0
2017-Sep-24 18:15N 34°09' W 119°12'0 0.0
2017-Sep-24 17:59N 34°09' W 119°12'4 8.2
2017-Sep-24 17:29N 34°07' W 119°17'4 7.7
2017-Sep-24 16:56N 34°09' W 119°12'0 0.0
2017-Sep-24 16:28N 34°09' W 119°12'4 8.0
2017-Sep-24 16:00N 34°07' W 119°16'4 7.5
2017-Sep-24 15:30N 34°11' W 119°16'812.1
2017-Sep-24 14:53N 34°11' W 119°25'411.7
2017-Sep-24 14:30N 34°09' W 119°21'611.8
2017-Sep-24 13:58N 34°09' W 119°13'1 1.2
2017-Sep-24 13:26N 34°09' W 119°12'0 0.0
2017-Sep-24 12:58N 34°09' W 119°12'0 0.5
2017-Sep-24 12:30N 34°09' W 119°12'1 1.9
2017-Sep-24 12:00N 34°08' W 119°13'1 2.0
2017-Sep-24 11:25N 34°09' W 119°12'0 0.0
2017-Sep-24 10:52N 34°09' W 119°12'0 0.0
2017-Sep-24 10:30N 34°09' W 119°12'0 0.0
2017-Sep-24 09:49N 34°09' W 119°12'0 0.0
2017-Sep-24 09:30N 34°09' W 119°12'0 0.0
2017-Sep-24 08:58N 34°09' W 119°12'0 0.0
2017-Sep-24 08:30N 34°09' W 119°12'0 0.0
2017-Sep-24 07:55N 34°09' W 119°12'0 0.0
2017-Sep-24 07:29N 34°09' W 119°12'0 0.0
2017-Sep-24 07:00N 34°09' W 119°12'0 0.0
2017-Sep-24 06:29N 34°09' W 119°12'0 0.0
2017-Sep-24 05:59N 34°09' W 119°12'0 0.0
2017-Sep-24 05:28N 34°09' W 119°12'4 8.7
2017-Sep-24 05:00N 34°07' W 119°17'713.4
2017-Sep-24 04:27N 34°11' W 119°24'716.1
2017-Sep-24 04:00N 34°17' W 119°29'713.1
2017-Sep-24 03:30N 34°23' W 119°30'3 5.5
2017-Sep-24 03:00N 34°20' W 119°32'815.0
2017-Sep-24 02:30N 34°14' W 119°27'5 8.9
2017-Sep-24 01:59N 34°10' W 119°24'914.0
2017-Sep-24 01:23N 34°08' W 119°14'2 3.0
2017-Sep-24 00:52N 34°09' W 119°12'4 9.8
2017-Sep-24 00:29N 34°07' W 119°16'4 7.5
2017-Sep-23 23:59N 34°09' W 119°12'0 0.0
2017-Sep-23 23:27N 34°09' W 119°12'2 4.7
2017-Sep-23 23:00N 34°08' W 119°15'2 4.2
2017-Sep-23 22:31N 34°07' W 119°17'4 8.2
2017-Sep-23 22:00N 34°09' W 119°12'2 4.0
2017-Sep-23 21:30N 34°09' W 119°15'816.2
2017-Sep-23 20:59N 34°11' W 119°24'1 1.3
2017-Sep-23 20:28N 34°11' W 119°25'1 1.2
2017-Sep-23 19:59N 34°11' W 119°26'11 0.3
2017-Sep-22 01:57N 34°09' W 119°12'3 6.1
2017-Sep-22 01:30N 34°08' W 119°15'1 1.5
2017-Sep-22 00:59N 34°08' W 119°14'2 3.3
2017-Sep-22 00:25N 34°09' W 119°12'0 0.0
2017-Sep-22 00:00N 34°09' W 119°12'0 0.0
2017-Sep-21 23:28N 34°09' W 119°12'2 3.9
2017-Sep-21 23:01N 34°09' W 119°14'917.9
2017-Sep-21 22:29N 34°11' W 119°25'1 1.3
2017-Sep-21 21:58N 34°11' W 119°26'1 1.4
2017-Sep-21 21:30N 34°11' W 119°25'0 0.0
2017-Sep-21 21:00N 34°11' W 119°25'612.0
2017-Sep-21 20:28N 34°16' W 119°30'612.2
2017-Sep-21 20:00N 34°22' W 119°31'1 2.9
2017-Sep-21 19:29N 34°23' W 119°30'0 0.0
2017-Sep-21 18:53N 34°23' W 119°30'0 1.2
2017-Sep-21 18:29N 34°23' W 119°31'612.5
2017-Sep-21 17:59N 34°17' W 119°28'714.7
2017-Sep-21 17:30N 34°12' W 119°22'612.5
2017-Sep-21 17:00N 34°07' W 119°17'0 0.1
2017-Sep-21 16:30N 34°07' W 119°17'4 8.0
2017-Sep-21 16:01N 34°09' W 119°12'611.5
2017-Sep-21 15:30N 34°10' W 119°20'5 9.3
2017-Sep-21 14:59N 34°11' W 119°25'816.6
2017-Sep-21 14:30N 34°07' W 119°17'4 7.1
2017-Sep-21 13:55N 34°09' W 119°12'0 0.0
2017-Sep-21 13:30N 34°09' W 119°12'0 0.0
2017-Sep-21 12:54N 34°09' W 119°12'2 3.8
2017-Sep-21 12:30N 34°08' W 119°14'1 2.3
2017-Sep-21 12:00N 34°09' W 119°13'0 0.7
2017-Sep-21 11:28N 34°09' W 119°12'0 0.0
2017-Sep-21 10:57N 34°09' W 119°12'0 0.0
2017-Sep-21 10:29N 34°09' W 119°12'0 0.0
2017-Sep-21 09:53N 34°09' W 119°12'0 0.0
2017-Sep-21 09:29N 34°09' W 119°12'0 0.0
2017-Sep-21 09:00N 34°09' W 119°12'0 0.0
2017-Sep-21 08:30N 34°09' W 119°12'0 0.0
2017-Sep-21 08:00N 34°09' W 119°12'0 0.0
2017-Sep-21 07:29N 34°09' W 119°12'0 0.0
2017-Sep-21 07:00N 34°09' W 119°12'0 0.0
2017-Sep-21 06:28N 34°09' W 119°12'0 0.0
2017-Sep-21 05:51N 34°09' W 119°12'0 0.0
2017-Sep-21 05:27N 34°09' W 119°12'0 0.0
2017-Sep-21 04:59N 34°09' W 119°12'0 0.0
2017-Sep-21 04:30N 34°09' W 119°12'0 0.0
2017-Sep-21 04:00N 34°09' W 119°12'0 0.0
2017-Sep-21 03:27N 34°09' W 119°12'0 0.0
2017-Sep-21 02:50N 34°09' W 119°12'0 0.6
2017-Sep-21 02:30N 34°09' W 119°12'916.0
2017-Sep-21 01:58N 34°10' W 119°23'2 5.1
2017-Sep-21 01:30N 34°10' W 119°20'611.2
2017-Sep-21 00:56N 34°09' W 119°12'2 4.1
2017-Sep-21 00:30N 34°08' W 119°14'1 3.0
2017-Sep-21 00:00N 34°09' W 119°12'0 0.6
2017-Sep-20 23:30N 34°09' W 119°12'4 7.4
2017-Sep-20 23:01N 34°07' W 119°16'815.9
2017-Sep-20 22:30N 34°11' W 119°25'2 5.0
2017-Sep-20 22:00N 34°10' W 119°22'814.4
2017-Sep-20 21:26N 34°09' W 119°12'4 9.5
2017-Sep-20 21:00N 34°07' W 119°17'0 0.1
2017-Sep-20 20:30N 34°07' W 119°17'610.9
2017-Sep-20 19:59N 34°10' W 119°23'610.8
2017-Sep-20 19:26N 34°14' W 119°27'715.6
2017-Sep-20 19:00N 34°20' W 119°31'3 5.5
2017-Sep-20 18:30N 34°23' W 119°30'0 0.3
2017-Sep-20 17:57N 34°23' W 119°31'612.9
2017-Sep-20 17:29N 34°17' W 119°30'816.4
2017-Sep-20 17:00N 34°10' W 119°24'714.4
2017-Sep-20 16:30N 34°08' W 119°16'3 6.5
2017-Sep-20 16:00N 34°09' W 119°12'1 2.0
2017-Sep-20 15:31N 34°08' W 119°13'917.0
2017-Sep-20 14:59N 34°11' W 119°24'1010.0
2017-Sep-20 14:00N 34°09' W 119°12'0 0.0
2017-Sep-20 13:30N 34°09' W 119°12'1 2.0
2017-Sep-20 12:59N 34°08' W 119°13'1 2.0
2017-Sep-20 12:30N 34°08' W 119°14'2 3.4
2017-Sep-20 12:00N 34°09' W 119°12'0 0.5
2017-Sep-20 11:28N 34°09' W 119°12'0 0.0
2017-Sep-20 10:58N 34°09' W 119°12'0 0.0
2017-Sep-20 10:29N 34°09' W 119°12'0 0.0
2017-Sep-20 10:00N 34°09' W 119°12'1 1.8
2017-Sep-20 09:30N 34°08' W 119°13'713.5
2017-Sep-20 08:59N 34°11' W 119°21'817.4
2017-Sep-20 08:30N 34°18' W 119°27'510.4
2017-Sep-20 07:59N 34°23' W 119°30'0 0.5
2017-Sep-20 07:28N 34°23' W 119°30'0 0.1
2017-Sep-20 07:00N 34°23' W 119°30'0 0.0
2017-Sep-20 06:24N 34°23' W 119°30'0 0.1
2017-Sep-20 06:00N 34°22' W 119°30'916.1
2017-Sep-20 05:28N 34°15' W 119°24'817.4
2017-Sep-20 04:59N 34°09' W 119°18'5 9.3
2017-Sep-20 04:26N 34°09' W 119°12'0 0.0
2017-Sep-20 03:59N 34°09' W 119°12'0 0.0
2017-Sep-20 03:25N 34°09' W 119°12'0 0.0
2017-Sep-20 03:00N 34°09' W 119°12'3 6.0
2017-Sep-20 02:30N 34°09' W 119°16'816.2
2017-Sep-20 02:00N 34°11' W 119°25'815.3
2017-Sep-20 01:29N 34°07' W 119°17'4 8.3
2017-Sep-20 01:00N 34°09' W 119°12'0 0.4
2017-Sep-20 00:30N 34°09' W 119°12'2 4.1
2017-Sep-20 00:01N 34°08' W 119°14'2 4.0
2017-Sep-19 23:29N 34°09' W 119°12'4 8.6
2017-Sep-19 23:00N 34°07' W 119°17'815.9
2017-Sep-19 22:30N 34°11' W 119°25'0 0.0
2017-Sep-19 22:00N 34°11' W 119°25'0 0.3
2017-Sep-19 21:30N 34°11' W 119°25'5 9.6
2017-Sep-19 20:58N 34°08' W 119°20'3 6.0
2017-Sep-19 20:30N 34°07' W 119°17'4 8.2
2017-Sep-19 20:00N 34°09' W 119°12'2 5.0
2017-Sep-19 19:30N 34°08' W 119°15'713.6
2017-Sep-19 19:00N 34°10' W 119°23'2 4.6
2017-Sep-19 18:29N 34°11' W 119°25'2 3.6
2017-Sep-19 17:58N 34°12' W 119°27'816.8
2017-Sep-19 17:29N 34°20' W 119°31'3 7.2
2017-Sep-19 17:00N 34°23' W 119°30'1 2.6
2017-Sep-19 16:28N 34°22' W 119°31'815.1
2017-Sep-19 15:56N 34°14' W 119°28'4 9.1
2017-Sep-19 15:30N 34°11' W 119°25'0 0.0
2017-Sep-19 15:00N 34°11' W 119°25'4 6.4
2017-Sep-19 14:27N 34°09' W 119°21'511.8
2017-Sep-19 14:00N 34°08' W 119°16'3 6.2
2017-Sep-19 13:30N 34°09' W 119°12'0 0.0
2017-Sep-19 13:00N 34°09' W 119°12'4 7.4
2017-Sep-19 12:30N 34°07' W 119°16'4 7.0
2017-Sep-19 12:00N 34°09' W 119°12'0 0.0
2017-Sep-19 11:31N 34°09' W 119°12'0 0.0
2017-Sep-19 11:00N 34°09' W 119°12'0 0.0
2017-Sep-19 10:30N 34°09' W 119°12'0 0.0
2017-Sep-19 10:00N 34°09' W 119°12'0 0.0
2017-Sep-19 09:31N 34°09' W 119°12'0 0.0
2017-Sep-19 09:01N 34°09' W 119°12'0 0.0
2017-Sep-19 08:30N 34°09' W 119°12'0 0.0
2017-Sep-19 08:01N 34°09' W 119°12'0 0.0
2017-Sep-19 07:31N 34°09' W 119°12'0 0.2
2017-Sep-19 07:01N 34°09' W 119°12'1 2.9
2017-Sep-19 06:31N 34°08' W 119°14'4 8.0
2017-Sep-19 06:00N 34°08' W 119°19'612.1
2017-Sep-19 05:30N 34°11' W 119°25'0 0.0
2017-Sep-19 05:00N 34°11' W 119°25'2 3.2
2017-Sep-19 04:30N 34°10' W 119°23'611.5
2017-Sep-19 03:57N 34°07' W 119°17'4 9.5
2017-Sep-19 03:31N 34°09' W 119°12'815.7
2017-Sep-19 03:00N 34°10' W 119°22'2 4.4
2017-Sep-19 02:29N 34°09' W 119°20'3 6.6
2017-Sep-19 02:00N 34°07' W 119°16'4 7.5
2017-Sep-19 01:29N 34°09' W 119°12'0 0.0
2017-Sep-19 00:58N 34°09' W 119°12'1 2.2
2017-Sep-19 00:30N 34°08' W 119°13'0 0.8
2017-Sep-19 00:00N 34°08' W 119°14'1 2.6
2017-Sep-18 23:29N 34°09' W 119°12'4 8.7
2017-Sep-18 23:00N 34°07' W 119°17'816.2
2017-Sep-18 22:30N 34°11' W 119°25'813.7
2017-Sep-18 21:57N 34°07' W 119°17'0 1.0
2017-Sep-18 21:30N 34°07' W 119°17'0 0.0
2017-Sep-18 21:00N 34°07' W 119°17'0 0.0
2017-Sep-18 20:30N 34°07' W 119°17'0 0.0
2017-Sep-18 20:00N 34°07' W 119°17'0 0.0
2017-Sep-18 19:30N 34°07' W 119°17'1 1.4
2017-Sep-18 19:00N 34°08' W 119°16'0 0.5
2017-Sep-18 18:26N 34°08' W 119°17'0 0.4
2017-Sep-18 18:00N 34°08' W 119°17'0 0.3
2017-Sep-18 17:30N 34°08' W 119°17'4 8.3
2017-Sep-18 17:00N 34°09' W 119°12'0 0.0
2017-Sep-18 16:28N 34°09' W 119°12'0 0.0
2017-Sep-18 16:00N 34°09' W 119°12'4 7.5
2017-Sep-18 15:31N 34°07' W 119°16'611.8
2017-Sep-18 15:00N 34°10' W 119°23'1 1.4
2017-Sep-18 14:30N 34°09' W 119°22'714.4
2017-Sep-18 14:00N 34°08' W 119°13'1 1.9
2017-Sep-18 13:30N 34°09' W 119°12'0 0.0
2017-Sep-18 13:00N 34°09' W 119°12'1 1.8
2017-Sep-18 12:30N 34°08' W 119°13'0 0.9
2017-Sep-18 12:00N 34°08' W 119°14'1 2.6
2017-Sep-18 11:28N 34°09' W 119°12'1 1.1
2017-Sep-18 11:00N 34°09' W 119°13'916.7
2017-Sep-18 10:28N 34°11' W 119°23'4 7.9
2017-Sep-18 10:00N 34°09' W 119°19'611.6
2017-Sep-18 09:30N 34°09' W 119°12'0 0.0
2017-Sep-18 09:00N 34°09' W 119°12'0 0.0
2017-Sep-18 08:29N 34°09' W 119°12'0 0.0
2017-Sep-18 07:59N 34°09' W 119°12'0 0.0
2017-Sep-18 07:27N 34°09' W 119°12'0 0.0
2017-Sep-18 06:55N 34°09' W 119°12'0 0.0
2017-Sep-18 06:29N 34°09' W 119°12'0 0.0
2017-Sep-18 05:54N 34°09' W 119°12'0 1.0
2017-Sep-18 05:30N 34°09' W 119°13'916.6
2017-Sep-18 04:57N 34°11' W 119°23'715.4
2017-Sep-18 04:30N 34°16' W 119°28'714.1
2017-Sep-18 04:00N 34°23' W 119°30'712.6
2017-Sep-18 03:29N 34°18' W 119°26'816.8
2017-Sep-18 02:59N 34°12' W 119°18'612.6
2017-Sep-18 02:30N 34°09' W 119°12'815.5
2017-Sep-18 02:00N 34°10' W 119°21'1 2.1
2017-Sep-18 01:30N 34°09' W 119°21'713.7
2017-Sep-18 01:00N 34°09' W 119°13'0 0.8
2017-Sep-18 00:30N 34°09' W 119°12'0 0.0
2017-Sep-18 00:01N 34°09' W 119°12'714.7
2017-Sep-17 23:30N 34°10' W 119°21'4 7.0
2017-Sep-17 23:00N 34°11' W 119°25'0 0.1
2017-Sep-17 22:30N 34°11' W 119°25'814.8
2017-Sep-17 21:58N 34°07' W 119°17'0 0.0
2017-Sep-17 21:30N 34°07' W 119°17'0 0.0
2017-Sep-17 21:00N 34°07' W 119°17'0 0.0
2017-Sep-17 20:30N 34°07' W 119°17'0 0.0
2017-Sep-17 20:00N 34°07' W 119°17'0 0.0
2017-Sep-17 19:30N 34°07' W 119°17'0 0.0
2017-Sep-17 19:00N 34°07' W 119°17'0 0.0
2017-Sep-17 18:29N 34°07' W 119°17'1 2.9
2017-Sep-17 18:00N 34°08' W 119°15'3 5.2
2017-Sep-17 17:30N 34°09' W 119°12'0 0.0
2017-Sep-17 17:00N 34°09' W 119°12'0 0.2
2017-Sep-17 16:30N 34°09' W 119°12'0 0.0
2017-Sep-17 16:00N 34°09' W 119°12'2 4.2
2017-Sep-17 15:30N 34°08' W 119°14'4 8.7
2017-Sep-17 15:00N 34°12' W 119°17'613.2
2017-Sep-17 14:31N 34°11' W 119°25'815.7
2017-Sep-17 14:01N 34°09' W 119°16'1 0.1
2017-Sep-17 01:42N 34°09' W 119°17'316.7
2017-Sep-17 01:31N 34°09' W 119°13'1 2.1
2017-Sep-17 01:00N 34°09' W 119°12'0 0.0
2017-Sep-17 00:27N 34°09' W 119°12'0 0.0
2017-Sep-17 00:00N 34°09' W 119°12'0 0.0
2017-Sep-16 23:28N 34°09' W 119°12'4 9.0
2017-Sep-16 23:00N 34°07' W 119°17'815.7
2017-Sep-16 22:30N 34°11' W 119°25'0 0.0
2017-Sep-16 22:00N 34°11' W 119°25'0 0.0
2017-Sep-16 21:30N 34°11' W 119°25'0 0.0
2017-Sep-16 21:00N 34°11' W 119°25'4 6.5
2017-Sep-16 20:26N 34°09' W 119°21'2 5.3
2017-Sep-16 20:00N 34°08' W 119°19'611.8
2017-Sep-16 19:30N 34°11' W 119°25'0 0.1
2017-Sep-16 19:00N 34°11' W 119°25'713.6
2017-Sep-16 18:30N 34°17' W 119°29'6 9.2
2017-Sep-16 17:49N 34°23' W 119°30'3 9.5
2017-Sep-16 17:29N 34°20' W 119°32'816.0
2017-Sep-16 17:00N 34°14' W 119°25'814.4
2017-Sep-16 16:27N 34°09' W 119°18'2 4.9
2017-Sep-16 16:00N 34°07' W 119°17'4 8.2
2017-Sep-16 15:30N 34°09' W 119°12'510.1
2017-Sep-16 15:00N 34°10' W 119°18'510.0
2017-Sep-16 14:30N 34°10' W 119°24'815.1
2017-Sep-16 13:59N 34°08' W 119°15'3 5.2
2017-Sep-16 13:26N 34°09' W 119°12'0 0.0
2017-Sep-16 12:57N 34°09' W 119°12'0 0.0
2017-Sep-16 12:28N 34°09' W 119°12'0 0.0
2017-Sep-16 12:00N 34°09' W 119°12'0 0.0
2017-Sep-16 11:29N 34°09' W 119°12'0 0.0
2017-Sep-16 11:00N 34°09' W 119°12'0 0.0
2017-Sep-16 10:30N 34°09' W 119°12'0 0.0
2017-Sep-16 10:00N 34°09' W 119°12'0 0.0
2017-Sep-16 09:26N 34°09' W 119°12'0 0.0
2017-Sep-16 08:42N 34°09' W 119°12'0 0.0
2017-Sep-16 08:29N 34°09' W 119°12'0 0.0
2017-Sep-16 07:59N 34°09' W 119°12'0 0.0
2017-Sep-16 07:30N 34°09' W 119°12'0 0.0
2017-Sep-16 06:57N 34°09' W 119°12'0 0.0
2017-Sep-16 06:30N 34°09' W 119°12'0 0.0
2017-Sep-16 05:59N 34°09' W 119°12'0 0.0
2017-Sep-16 05:30N 34°09' W 119°12'0 0.0
2017-Sep-16 04:58N 34°09' W 119°12'0 0.0
2017-Sep-16 04:28N 34°09' W 119°12'0 0.0
2017-Sep-16 03:51N 34°09' W 119°12'0 0.0
2017-Sep-16 03:25N 34°09' W 119°12'3 7.3
2017-Sep-16 02:59N 34°09' W 119°16'816.5
2017-Sep-16 02:30N 34°11' W 119°25'712.2
2017-Sep-16 01:56N 34°09' W 119°17'4 8.9
2017-Sep-16 01:29N 34°09' W 119°12'0 0.0
2017-Sep-16 01:01N 34°09' W 119°12'0 0.0
2017-Sep-16 00:30N 34°09' W 119°12'0 0.0
2017-Sep-16 00:01N 34°09' W 119°12'0 0.0
2017-Sep-15 23:27N 34°09' W 119°12'4 9.1
2017-Sep-15 23:00N 34°07' W 119°17'816.1
2017-Sep-15 22:30N 34°11' W 119°25'713.4
2017-Sep-15 21:57N 34°07' W 119°17'0 1.0
2017-Sep-15 21:30N 34°07' W 119°17'4 7.1
2017-Sep-15 21:01N 34°09' W 119°13'4 8.0
2017-Sep-15 20:29N 34°08' W 119°18'714.5
2017-Sep-15 20:00N 34°11' W 119°25'0 0.3
2017-Sep-15 19:29N 34°11' W 119°25'4 8.3
2017-Sep-15 18:58N 34°15' W 119°28'715.5
2017-Sep-15 18:30N 34°21' W 119°32'2 4.5
2017-Sep-15 18:00N 34°23' W 119°31'4 7.9
2017-Sep-15 17:30N 34°19' W 119°31'714.9
2017-Sep-15 17:00N 34°13' W 119°27'2 4.5
2017-Sep-15 16:30N 34°11' W 119°25'5 9.7
2017-Sep-15 16:00N 34°10' W 119°19'611.9
2017-Sep-15 15:30N 34°09' W 119°12'815.2
2017-Sep-15 14:57N 34°10' W 119°22'1 2.1
2017-Sep-15 14:30N 34°10' W 119°23'  

Dump ship's entire track history